createdAt,value
2023-05-13T00:02:08.489Z,94529.00
2023-05-13T00:04:35.204Z,94533.56
2023-05-13T00:07:02.288Z,94532.13
2023-05-13T00:09:28.925Z,94536.72
2023-05-13T00:11:55.695Z,94534.13
2023-05-13T00:14:22.428Z,94534.13
2023-05-13T00:16:49.233Z,94542.03
2023-05-13T00:19:16.007Z,94541.34
2023-05-13T00:21:42.705Z,94539.66
2023-05-13T00:24:09.456Z,94536.56
2023-05-13T00:26:36.171Z,94536.81
2023-05-13T00:29:02.906Z,94538.97
2023-05-13T00:31:29.730Z,94541.38
2023-05-13T00:33:56.362Z,94542.63
2023-05-13T00:36:23.082Z,94543.81
2023-05-13T00:38:49.699Z,94539.53
2023-05-13T00:41:17.766Z,94540.25
2023-05-13T00:43:44.450Z,94537.69
2023-05-13T00:46:11.166Z,94536.00
2023-05-13T00:48:38.599Z,94545.81
2023-05-13T00:51:05.496Z,94543.19
2023-05-13T00:53:33.473Z,94534.81
2023-05-13T00:56:00.430Z,94538.22
2023-05-13T00:58:27.092Z,94542.53
2023-05-13T01:01:01.044Z,94539.66
2023-05-13T01:03:35.445Z,94538.97
2023-05-13T01:06:12.484Z,94538.03
2023-05-13T01:08:51.001Z,94540.84
2023-05-13T01:11:22.781Z,94544.72
2023-05-13T01:13:54.764Z,94552.41
2023-05-13T01:16:34.616Z,94539.25
2023-05-13T01:19:14.402Z,94540.44
2023-05-13T01:21:41.100Z,94542.63
2023-05-13T01:24:08.231Z,94546.47
2023-05-13T01:26:35.039Z,94538.34
2023-05-13T01:29:01.704Z,94539.69
2023-05-13T01:31:29.389Z,94546.56
2023-05-13T01:33:57.097Z,94545.63
2023-05-13T01:36:23.785Z,94546.31
2023-05-13T01:38:51.595Z,94542.75
2023-05-13T01:41:21.200Z,94547.09
2023-05-13T01:43:47.919Z,94546.81
2023-05-13T01:46:14.620Z,94546.56
2023-05-13T01:48:41.365Z,94548.03
2023-05-13T01:51:08.221Z,94548.84
2023-05-13T01:53:34.863Z,94548.78
2023-05-13T01:56:04.816Z,94548.31
2023-05-13T01:58:31.358Z,94546.38
2023-05-13T02:00:58.070Z,94544.25
2023-05-13T02:03:24.654Z,94542.56
2023-05-13T02:05:51.349Z,94534.69
2023-05-13T02:08:17.911Z,94538.75
2023-05-13T02:10:44.433Z,94539.94
2023-05-13T02:13:11.011Z,94536.59
2023-05-13T02:15:37.865Z,94540.72
2023-05-13T02:18:04.543Z,94534.47
2023-05-13T02:20:31.174Z,94539.75
2023-05-13T02:22:57.797Z,94533.78
2023-05-13T02:25:24.356Z,94533.06
2023-05-13T02:27:51.282Z,94536.88
2023-05-13T02:30:17.837Z,94531.41
2023-05-13T02:32:44.681Z,94534.38
2023-05-13T02:35:11.207Z,94538.13
2023-05-13T02:37:37.752Z,94534.09
2023-05-13T02:40:04.747Z,94534.31
2023-05-13T02:42:31.331Z,94536.25
2023-05-13T02:44:58.716Z,94539.34
2023-05-13T02:47:25.370Z,94537.72
2023-05-13T02:49:51.922Z,94537.72
2023-05-13T02:52:18.628Z,94531.81
2023-05-13T02:54:45.294Z,94528.94
2023-05-13T02:57:11.847Z,94532.13
2023-05-13T02:59:38.445Z,94542.41
2023-05-13T03:02:05.424Z,94533.53
2023-05-13T03:04:32.090Z,94544.50
2023-05-13T03:06:58.647Z,94545.91
2023-05-13T03:09:25.173Z,94539.25
2023-05-13T03:11:51.846Z,94542.69
2023-05-13T03:14:18.526Z,94545.28
2023-05-13T03:16:45.216Z,94549.75
2023-05-13T03:19:11.936Z,94549.56
2023-05-13T03:21:39.122Z,94553.59
2023-05-13T03:24:06.196Z,94549.56
2023-05-13T03:26:32.748Z,94552.19
2023-05-13T03:28:59.440Z,94549.59
2023-05-13T03:31:26.234Z,94557.72
2023-05-13T03:33:52.896Z,94553.16
2023-05-13T03:36:19.490Z,94547.19
2023-05-13T03:38:46.163Z,94552.94
2023-05-13T03:41:12.926Z,94556.97
2023-05-13T03:43:39.530Z,94553.88
2023-05-13T03:46:06.183Z,94557.72
2023-05-13T03:48:32.767Z,94565.88
2023-05-13T03:50:59.307Z,94557.50
2023-05-13T03:53:25.912Z,94570.44
2023-05-13T03:55:52.439Z,94568.28
2023-05-13T03:58:19.342Z,94577.13
2023-05-13T04:00:46.933Z,94566.38
2023-05-13T04:03:17.295Z,94565.66
2023-05-13T04:05:46.735Z,94572.13
2023-05-13T04:08:13.487Z,94568.53
2023-05-13T04:10:40.324Z,94573.56
2023-05-13T04:13:07.491Z,94571.16
2023-05-13T04:15:34.022Z,94574.53
2023-05-13T04:18:00.754Z,94573.06
2023-05-13T04:20:27.446Z,94577.91
2023-05-13T04:22:54.028Z,94575.50
2023-05-13T04:25:20.603Z,94580.53
2023-05-13T04:27:50.275Z,94573.56
2023-05-13T04:30:16.901Z,94585.53
2023-05-13T04:32:44.215Z,94591.03
2023-05-13T04:35:10.852Z,94586.03
2023-05-13T04:37:37.514Z,94588.66
2023-05-13T04:40:04.485Z,94594.63
2023-05-13T04:42:31.038Z,94595.13
2023-05-13T04:44:57.669Z,94596.53
2023-05-13T04:47:24.259Z,94599.38
2023-05-13T04:49:53.811Z,94593.19
2023-05-13T04:52:20.837Z,94595.84
2023-05-13T04:54:47.349Z,94593.69
2023-05-13T04:57:13.944Z,94600.16
2023-05-13T04:59:40.550Z,94597.03
2023-05-13T05:02:07.210Z,94600.38
2023-05-13T05:04:33.860Z,94602.06
2023-05-13T05:07:00.383Z,94600.16
2023-05-13T05:09:27.101Z,94605.69
2023-05-13T05:11:53.622Z,94605.69
2023-05-13T05:14:20.724Z,94599.22
2023-05-13T05:16:47.312Z,94606.66
2023-05-13T05:19:13.873Z,94605.72
2023-05-13T05:21:40.505Z,94614.06
2023-05-13T05:24:07.326Z,94610.47
2023-05-13T05:26:34.002Z,94615.97
2023-05-13T05:29:00.574Z,94620.75
2023-05-13T05:31:27.713Z,94622.16
2023-05-13T05:33:55.159Z,94631.50
2023-05-13T05:36:21.781Z,94634.81
2023-05-13T05:38:48.437Z,94638.16
2023-05-13T05:41:15.201Z,94630.06
2023-05-13T05:43:41.793Z,94629.06
2023-05-13T05:46:09.468Z,94635.53
2023-05-13T05:48:36.150Z,94630.25
2023-05-13T05:51:02.899Z,94630.25
2023-05-13T05:53:29.568Z,94627.63
2023-05-13T05:55:56.284Z,94630.25
2023-05-13T05:58:23.126Z,94629.06
2023-05-13T06:00:49.696Z,94636.25
2023-05-13T06:03:16.605Z,94630.50
2023-05-13T06:05:43.269Z,94638.63
2023-05-13T06:08:09.807Z,94636.97
2023-05-13T06:10:36.413Z,94634.81
2023-05-13T06:13:02.956Z,94641.03
2023-05-13T06:15:29.668Z,94633.13
2023-05-13T06:17:56.999Z,94641.25
2023-05-13T06:20:23.952Z,94639.59
2023-05-13T06:22:50.802Z,94633.91
2023-05-13T06:25:17.618Z,94639.59
2023-05-13T06:27:44.289Z,94641.31
2023-05-13T06:30:10.983Z,94648.19
2023-05-13T06:32:39.428Z,94647.03
2023-05-13T06:35:09.565Z,94647.72
2023-05-13T06:37:36.155Z,94648.19
2023-05-13T06:40:03.081Z,94650.34
2023-05-13T06:42:29.624Z,94643.19
2023-05-13T06:44:56.211Z,94640.31
2023-05-13T06:47:24.022Z,94647.22
2023-05-13T06:49:50.713Z,94649.16
2023-05-13T06:52:17.328Z,94646.53
2023-05-13T06:54:43.861Z,94644.59
2023-05-13T06:57:10.451Z,94643.94
2023-05-13T06:59:37.165Z,94644.84
2023-05-13T07:02:04.479Z,94648.66
2023-05-13T07:04:31.159Z,94657.25
2023-05-13T07:06:57.889Z,94651.97
2023-05-13T07:09:24.522Z,94650.34
2023-05-13T07:11:51.127Z,94653.94
2023-05-13T07:14:17.772Z,94651.97
2023-05-13T07:16:44.408Z,94662.75
2023-05-13T07:19:11.077Z,94663.44
2023-05-13T07:21:38.465Z,94667.53
2023-05-13T07:24:05.459Z,94663.22
2023-05-13T07:26:32.506Z,94659.66
2023-05-13T07:28:59.674Z,94675.19
2023-05-13T07:31:26.523Z,94668.72
2023-05-13T07:33:53.311Z,94668.47
2023-05-13T07:36:19.914Z,94673.97
2023-05-13T07:38:46.530Z,94673.97
2023-05-13T07:41:13.170Z,94668.25
2023-05-13T07:43:40.892Z,94668.72
2023-05-13T07:46:07.540Z,94671.59
2023-05-13T07:48:34.162Z,94675.44
2023-05-13T07:51:00.804Z,94676.38
2023-05-13T07:53:27.518Z,94681.13
2023-05-13T07:55:54.432Z,94676.34
2023-05-13T07:58:21.155Z,94676.22
2023-05-13T08:00:49.472Z,94680.34
2023-05-13T08:03:17.057Z,94682.03
2023-05-13T08:05:43.810Z,94685.38
2023-05-13T08:08:10.457Z,94677.47
2023-05-13T08:10:37.047Z,94679.88
2023-05-13T08:13:03.618Z,94683.47
2023-05-13T08:15:30.315Z,94681.53
2023-05-13T08:17:57.017Z,94676.53
2023-05-13T08:20:29.600Z,94677.19
2023-05-13T08:22:59.323Z,94676.53
2023-05-13T08:25:25.894Z,94674.56
2023-05-13T08:27:52.481Z,94676.72
2023-05-13T08:30:19.354Z,94679.34
2023-05-13T08:32:46.147Z,94686.75
2023-05-13T08:35:12.786Z,94684.13
2023-05-13T08:37:39.836Z,94682.22
2023-05-13T08:40:07.092Z,94683.84
2023-05-13T08:42:33.769Z,94687.72
2023-05-13T08:45:05.684Z,94697.25
2023-05-13T08:47:58.391Z,94693.91
2023-05-13T08:50:26.233Z,94689.34
2023-05-13T08:52:56.339Z,94690.13
2023-05-13T08:55:24.308Z,94695.31
2023-05-13T08:57:51.581Z,94686.97
2023-05-13T09:00:21.245Z,94691.22
2023-05-13T09:02:49.894Z,94700.78
2023-05-13T09:05:17.842Z,94696.72
2023-05-13T09:07:44.620Z,94698.66
2023-05-13T09:10:11.410Z,94695.28
2023-05-13T09:12:45.357Z,94698.63
2023-05-13T09:15:13.950Z,94700.06
2023-05-13T09:17:45.564Z,94697.22
2023-05-13T09:20:14.118Z,94696.25
2023-05-13T09:22:57.248Z,94697.38
2023-05-13T09:25:24.725Z,94696.94
2023-05-13T09:27:59.057Z,94697.38
2023-05-13T09:30:36.883Z,94699.56
2023-05-13T09:33:08.755Z,94697.88
2023-05-13T09:35:37.510Z,94694.78
2023-05-13T09:38:20.214Z,94700.50
2023-05-13T09:40:57.075Z,94701.50
2023-05-13T09:43:25.755Z,94704.06
2023-05-13T09:45:57.080Z,94697.22
2023-05-13T09:48:26.798Z,94703.44
2023-05-13T09:50:55.072Z,94702.41
2023-05-13T09:53:22.207Z,94702.66
2023-05-13T09:55:50.929Z,94702.69
2023-05-13T09:58:20.172Z,94709.59
2023-05-13T10:00:47.815Z,94710.31
2023-05-13T10:03:15.264Z,94706.44
2023-05-13T10:05:42.805Z,94707.13
2023-05-13T10:08:10.916Z,94713.09
2023-05-13T10:10:38.464Z,94712.41
2023-05-13T10:13:16.572Z,94716.06
2023-05-13T10:15:50.089Z,94719.88
2023-05-13T10:18:17.692Z,94709.78
2023-05-13T10:20:44.845Z,94715.25
2023-05-13T10:23:12.305Z,94716.41
2023-05-13T10:25:39.520Z,94725.50
2023-05-13T10:28:06.812Z,94719.59
2023-05-13T10:30:35.764Z,94719.28
2023-05-13T10:33:03.945Z,94719.72
2023-05-13T10:35:37.049Z,94724.47
2023-05-13T10:38:23.589Z,94725.41
2023-05-13T10:41:09.658Z,94721.91
2023-05-13T10:43:37.377Z,94723.00
2023-05-13T10:46:13.651Z,94718.97
2023-05-13T10:48:46.317Z,94714.09
2023-05-13T10:51:17.592Z,94724.72
2023-05-13T10:53:49.121Z,94712.22
2023-05-13T10:56:19.503Z,94719.41
2023-05-13T10:59:01.471Z,94719.41
2023-05-13T11:01:30.279Z,94722.69
2023-05-13T11:04:01.926Z,94717.38
2023-05-13T11:06:42.863Z,94726.53
2023-05-13T11:09:15.808Z,94722.41
2023-05-13T11:11:47.677Z,94717.19
2023-05-13T11:14:22.888Z,94725.75
2023-05-13T11:17:18.810Z,94731.72
2023-05-13T11:19:47.532Z,94725.53
2023-05-13T11:22:22.691Z,94725.97
2023-05-13T11:25:11.456Z,94732.94
2023-05-13T11:27:40.107Z,94732.94
2023-05-13T11:30:28.082Z,94737.47
2023-05-13T11:32:57.040Z,94736.22
2023-05-13T11:35:26.173Z,94733.19
2023-05-13T11:37:53.648Z,94736.03
2023-05-13T11:40:27.084Z,94735.09
2023-05-13T11:42:54.294Z,94735.75
2023-05-13T11:45:22.951Z,94736.72
2023-05-13T11:47:50.280Z,94734.81
2023-05-13T11:50:27.440Z,94736.41
2023-05-13T11:52:55.749Z,94738.81
2023-05-13T11:55:35.268Z,94742.34
2023-05-13T11:58:02.673Z,94740.72
2023-05-13T12:00:29.192Z,94742.22
2023-05-13T12:02:56.298Z,94743.34
2023-05-13T12:05:24.025Z,94753.59
2023-05-13T12:07:51.540Z,94746.19
2023-05-13T12:10:18.382Z,94741.63
2023-05-13T12:12:46.132Z,94739.72
2023-05-13T12:15:22.971Z,94748.09
2023-05-13T12:17:50.338Z,94749.53
2023-05-13T12:20:24.339Z,94747.63
2023-05-13T12:22:53.326Z,94750.72
2023-05-13T12:25:51.215Z,94741.81
2023-05-13T12:28:20.206Z,94746.81
2023-05-13T12:30:59.923Z,94737.78
2023-05-13T12:33:40.683Z,94738.03
2023-05-13T12:36:26.083Z,94736.97
2023-05-13T12:39:07.755Z,94737.91
2023-05-13T12:41:36.574Z,94738.59
2023-05-13T12:44:10.370Z,94734.06
2023-05-13T12:46:37.548Z,94740.78
2023-05-13T12:49:05.368Z,94742.91
2023-05-13T12:51:33.822Z,94738.84
2023-05-13T12:54:00.941Z,94742.41
2023-05-13T12:56:27.702Z,94744.78
2023-05-13T12:58:54.673Z,94742.84
2023-05-13T13:01:22.056Z,94743.75
2023-05-13T13:03:48.838Z,94749.78
2023-05-13T13:06:15.980Z,94748.28
2023-05-13T13:08:42.627Z,94752.09
2023-05-13T13:11:09.439Z,94756.34
2023-05-13T13:13:38.699Z,94760.91
2023-05-13T13:16:06.353Z,94754.19
2023-05-13T13:18:33.171Z,94751.78
2023-05-13T13:20:59.811Z,94761.13
2023-05-13T13:23:26.408Z,94756.28
2023-05-13T13:25:53.094Z,94758.69
2023-05-13T13:28:19.727Z,94759.16
2023-05-13T13:30:47.235Z,94758.69
2023-05-13T13:33:15.559Z,94757.56
2023-05-13T13:35:45.941Z,94755.28
2023-05-13T13:38:12.881Z,94751.94
2023-05-13T13:40:39.588Z,94757.94
2023-05-13T13:43:07.580Z,94755.50
2023-05-13T13:45:34.708Z,94753.34
2023-05-13T13:48:01.541Z,94751.78
2023-05-13T13:50:28.378Z,94753.66
2023-05-13T13:52:55.167Z,94749.56
2023-05-13T13:55:23.126Z,94750.28
2023-05-13T13:57:50.635Z,94746.38
2023-05-13T14:00:17.425Z,94739.53
2023-05-13T14:02:44.497Z,94747.88
2023-05-13T14:05:12.749Z,94745.75
2023-05-13T14:07:39.441Z,94737.09
2023-05-13T14:10:06.948Z,94743.34
2023-05-13T14:12:33.919Z,94750.94
2023-05-13T14:15:00.557Z,94747.59
2023-05-13T14:17:27.181Z,94746.22
2023-05-13T14:19:55.593Z,94742.88
2023-05-13T14:22:23.697Z,94747.38
2023-05-13T14:24:52.143Z,94736.84
2023-05-13T14:27:19.570Z,94741.59
2023-05-13T14:29:47.726Z,94735.63
2023-05-13T14:32:14.540Z,94736.34
2023-05-13T14:34:41.278Z,94737.03
2023-05-13T14:37:07.914Z,94733.69
2023-05-13T14:39:34.853Z,94735.13
2023-05-13T14:42:01.606Z,94735.81
2023-05-13T14:44:28.214Z,94730.34
2023-05-13T14:46:55.116Z,94729.34
2023-05-13T14:49:21.775Z,94727.91
2023-05-13T14:51:48.474Z,94731.50
2023-05-13T14:54:15.171Z,94727.72
2023-05-13T14:56:41.731Z,94730.06
2023-05-13T14:59:08.612Z,94725.22
2023-05-13T15:01:35.393Z,94729.78
2023-05-13T15:04:02.175Z,94724.31
2023-05-13T15:06:29.271Z,94733.91
2023-05-13T15:08:56.460Z,94724.78
2023-05-13T15:11:23.491Z,94721.16
2023-05-13T15:13:50.069Z,94723.72
2023-05-13T15:16:16.717Z,94719.88
2023-05-13T15:18:43.340Z,94720.31
2023-05-13T15:21:09.988Z,94715.47
2023-05-13T15:23:36.980Z,94716.38
2023-05-13T15:26:03.607Z,94721.44
2023-05-13T15:28:30.250Z,94715.81
2023-05-13T15:30:56.846Z,94713.69
2023-05-13T15:33:23.426Z,94716.91
2023-05-13T15:35:50.004Z,94717.31
2023-05-13T15:38:16.941Z,94720.50
2023-05-13T15:40:43.587Z,94719.47
2023-05-13T15:43:10.178Z,94713.66
2023-05-13T15:45:36.921Z,94718.47
2023-05-13T15:48:03.688Z,94717.09
2023-05-13T15:50:30.292Z,94715.97
2023-05-13T15:52:56.853Z,94708.84
2023-05-13T15:55:23.510Z,94707.81
2023-05-13T15:57:50.607Z,94705.88
2023-05-13T16:00:18.296Z,94704.69
2023-05-13T16:02:45.030Z,94698.91
2023-05-13T16:05:15.736Z,94704.19
2023-05-13T16:07:42.646Z,94698.28
2023-05-13T16:10:09.615Z,94698.91
2023-05-13T16:12:36.785Z,94695.56
2023-05-13T16:15:04.278Z,94709.66
2023-05-13T16:17:30.862Z,94706.53
2023-05-13T16:19:57.548Z,94703.66
2023-05-13T16:22:37.783Z,94711.31
2023-05-13T16:25:06.854Z,94706.75
2023-05-13T16:27:34.249Z,94696.91
2023-05-13T16:30:02.043Z,94698.31
2023-05-13T16:32:29.509Z,94698.56
2023-05-13T16:34:56.646Z,94690.81
2023-05-13T16:37:23.417Z,94692.50
2023-05-13T16:39:50.123Z,94693.09
2023-05-13T16:42:17.277Z,94685.53
2023-05-13T16:44:43.848Z,94683.75
2023-05-13T16:47:10.501Z,94683.47
2023-05-13T16:49:37.176Z,94688.75
2023-05-13T16:52:07.091Z,94685.41
2023-05-13T16:54:33.945Z,94689.25
2023-05-13T16:57:00.579Z,94678.47
2023-05-13T16:59:27.737Z,94685.41
2023-05-13T17:01:54.718Z,94676.75
2023-05-13T17:04:21.457Z,94676.53
2023-05-13T17:06:48.094Z,94670.28
2023-05-13T17:09:14.842Z,94672.38
2023-05-13T17:11:41.443Z,94669.47
2023-05-13T17:14:08.029Z,94668.75
2023-05-13T17:16:34.790Z,94672.69
2023-05-13T17:19:01.512Z,94663.66
2023-05-13T17:21:28.200Z,94677.81
2023-05-13T17:23:54.947Z,94673.56
2023-05-13T17:26:22.195Z,94674.47
2023-05-13T17:28:49.662Z,94672.06
2023-05-13T17:31:16.756Z,94680.91
2023-05-13T17:33:43.670Z,94672.78
2023-05-13T17:36:10.979Z,94679.28
2023-05-13T17:38:37.941Z,94683.31
2023-05-13T17:41:04.823Z,94681.19
2023-05-13T17:43:31.421Z,94683.31
2023-05-13T17:45:58.214Z,94682.13
2023-05-13T17:48:25.051Z,94689.16
2023-05-13T17:50:51.720Z,94678.69
2023-05-13T17:53:18.932Z,94680.63
2023-05-13T17:55:47.660Z,94683.97
2023-05-13T17:58:17.789Z,94687.81
2023-05-13T18:00:44.338Z,94679.69
2023-05-13T18:03:11.005Z,94679.50
2023-05-13T18:05:37.666Z,94676.16
2023-05-13T18:08:04.424Z,94678.03
2023-05-13T18:10:31.096Z,94681.91
2023-05-13T18:12:57.709Z,94689.81
2023-05-13T18:15:24.414Z,94686.47
2023-05-13T18:17:51.157Z,94683.09
2023-05-13T18:20:18.400Z,94682.41
2023-05-13T18:22:45.083Z,94688.19
2023-05-13T18:25:11.710Z,94681.66
2023-05-13T18:27:38.327Z,94681.38
2023-05-13T18:30:06.224Z,94692.84
2023-05-13T18:32:32.880Z,94678.72
2023-05-13T18:34:59.473Z,94685.91
2023-05-13T18:37:26.141Z,94687.66
2023-05-13T18:39:52.812Z,94693.44
2023-05-13T18:42:19.473Z,94695.56
2023-05-13T18:44:46.026Z,94688.16
2023-05-13T18:47:12.578Z,94698.72
2023-05-13T18:49:39.180Z,94698.06
2023-05-13T18:52:06.284Z,94695.66
2023-05-13T18:54:32.931Z,94696.84
2023-05-13T18:56:59.602Z,94700.69
2023-05-13T18:59:26.204Z,94700.00
2023-05-13T19:01:52.974Z,94703.81
2023-05-13T19:04:19.869Z,94705.56
2023-05-13T19:06:46.570Z,94713.47
2023-05-13T19:09:13.140Z,94713.72
2023-05-13T19:11:39.805Z,94711.81
2023-05-13T19:14:06.772Z,94722.38
2023-05-13T19:16:33.442Z,94719.00
2023-05-13T19:19:00.189Z,94722.19
2023-05-13T19:21:26.874Z,94736.56
2023-05-13T19:23:53.389Z,94728.66
2023-05-13T19:26:20.064Z,94730.59
2023-05-13T19:28:47.442Z,94734.91
2023-05-13T19:31:14.040Z,94727.00
2023-05-13T19:33:41.066Z,94724.88
2023-05-13T19:36:09.110Z,94728.22
2023-05-13T19:38:35.946Z,94725.38
2023-05-13T19:41:02.545Z,94726.09
2023-05-13T19:43:29.187Z,94720.09
2023-05-13T19:45:57.568Z,94722.53
2023-05-13T19:48:24.156Z,94726.34
2023-05-13T19:50:53.491Z,94717.72
2023-05-13T19:53:24.600Z,94711.03
2023-05-13T19:55:51.379Z,94718.94
2023-05-13T19:58:18.015Z,94720.88
2023-05-13T20:00:44.934Z,94716.81
2023-05-13T20:03:11.723Z,94721.38
2023-05-13T20:05:41.184Z,94708.69
2023-05-13T20:08:08.021Z,94700.06
2023-05-13T20:10:36.769Z,94708.69
2023-05-13T20:13:04.788Z,94701.25
2023-05-13T20:15:32.195Z,94701.06
2023-05-13T20:17:58.926Z,94703.00
2023-05-13T20:20:25.720Z,94705.41
2023-05-13T20:22:52.360Z,94699.41
2023-05-13T20:25:18.983Z,94697.78
2023-05-13T20:27:45.569Z,94700.50
2023-05-13T20:30:12.822Z,94689.94
2023-05-13T20:32:39.495Z,94684.16
2023-05-13T20:35:07.710Z,94690.16
2023-05-13T20:37:34.702Z,94683.47
2023-05-13T20:40:01.276Z,94682.03
2023-05-13T20:42:28.025Z,94679.41
2023-05-13T20:44:54.611Z,94670.78
2023-05-13T20:47:21.560Z,94685.88
2023-05-13T20:49:48.189Z,94673.91
2023-05-13T20:52:14.854Z,94677.72
2023-05-13T20:54:41.547Z,94680.91
2023-05-13T20:57:08.117Z,94674.19
2023-05-13T20:59:34.945Z,94674.91
2023-05-13T21:02:01.576Z,94667.75
2023-05-13T21:04:28.339Z,94672.06
2023-05-13T21:06:54.921Z,94676.59
2023-05-13T21:09:21.504Z,94673.03
2023-05-13T21:11:48.095Z,94671.81
2023-05-13T21:14:14.943Z,94660.56
2023-05-13T21:16:41.598Z,94664.19
2023-05-13T21:19:08.396Z,94669.25
2023-05-13T21:21:35.129Z,94668.78
2023-05-13T21:24:01.706Z,94662.03
2023-05-13T21:26:28.453Z,94646.03
2023-05-13T21:28:55.015Z,94650.09
2023-05-13T21:31:21.698Z,94655.88
2023-05-13T21:33:49.124Z,94663.06
2023-05-13T21:36:15.997Z,94660.19
2023-05-13T21:38:42.581Z,94657.56
2023-05-13T21:41:09.087Z,94663.31
2023-05-13T21:43:35.706Z,94657.34
2023-05-13T21:46:03.310Z,94657.34
2023-05-13T21:48:29.896Z,94660.28
2023-05-13T21:50:56.529Z,94657.66
2023-05-13T21:53:23.234Z,94654.28
2023-05-13T21:55:50.158Z,94659.31
2023-05-13T21:58:17.045Z,94663.41
2023-05-13T22:00:43.709Z,94658.13
2023-05-13T22:03:10.360Z,94657.91
2023-05-13T22:05:43.624Z,94654.59
2023-05-13T22:08:13.318Z,94656.75
2023-05-13T22:10:39.906Z,94649.56
2023-05-13T22:13:06.690Z,94655.31
2023-05-13T22:15:33.265Z,94650.06
2023-05-13T22:17:59.994Z,94651.97
2023-05-13T22:20:26.745Z,94651.78
2023-05-13T22:22:53.479Z,94648.66
2023-05-13T22:25:20.086Z,94655.84
2023-05-13T22:27:47.578Z,94657.03
2023-05-13T22:30:14.672Z,94647.00
2023-05-13T22:32:41.238Z,94649.66
2023-05-13T22:35:08.679Z,94648.75
2023-05-13T22:37:35.423Z,94647.28
2023-05-13T22:40:02.042Z,94643.25
2023-05-13T22:42:28.638Z,94644.66
2023-05-13T22:44:55.410Z,94641.09
2023-05-13T22:47:22.414Z,94643.72
2023-05-13T22:49:48.990Z,94642.50
2023-05-13T22:52:15.659Z,94643.25
2023-05-13T22:54:42.320Z,94638.69
2023-05-13T22:57:09.002Z,94637.47
2023-05-13T22:59:35.723Z,94635.81
2023-05-13T23:02:02.401Z,94628.84
2023-05-13T23:04:29.235Z,94632.69
2023-05-13T23:06:55.887Z,94628.13
2023-05-13T23:09:22.430Z,94626.00
2023-05-13T23:11:49.019Z,94633.66
2023-05-13T23:14:15.667Z,94622.41
2023-05-13T23:16:42.491Z,94621.03
2023-05-13T23:19:09.276Z,94617.84
2023-05-13T23:21:36.402Z,94623.44
2023-05-13T23:24:03.666Z,94619.34
2023-05-13T23:26:30.978Z,94616.72
2023-05-13T23:28:57.577Z,94616.00
2023-05-13T23:31:24.207Z,94614.16
2023-05-13T23:33:51.098Z,94611.03
2023-05-13T23:36:17.741Z,94610.31
2023-05-13T23:38:44.318Z,94608.16
2023-05-13T23:41:11.106Z,94598.13
2023-05-13T23:43:37.749Z,94599.13
2023-05-13T23:46:04.490Z,94596.47
2023-05-13T23:48:31.961Z,94595.78
2023-05-13T23:50:58.773Z,94596.25
2023-05-13T23:53:25.650Z,94592.91
2023-05-13T23:55:52.188Z,94596.56
2023-05-13T23:58:18.771Z,94600.59
